Terminal Aerodrome Forecast
Issued by NWS Pocatello, ID

Home | Current Version | Previous Version | Text Only | Print | Product List | Glossary On
Versions: 1 2 3 4 5 6 7 8 9 10 11 12 13
000
FTUS45 KPIH 271100
TAFBYI
TAF
KBYI 271123Z 2712/2812 27006KT P6SM SCT020 BKN150
     FM271600 24010KT P6SM SCT018 BKN120
     FM280100 22008KT P6SM OVC100
     FM280900 23014KT P6SM -SN BKN020 OVC060=

USA.gov is the U.S. government's official web portal to all federal, state and local government web resources and services.